»·PEaware :: UAL1217 KPDX-KSFO

UAL1217 :: KPDX-KSFO

FLIGHT INFORMATION

Flight Status: Arrived
Operator:
United Airlines
More flights by this operator :: More flights under this callsign
Pilot: Alex S. (7186)
Aircraft: BOEING 737-800
(B738)
More flights by this aircraft type
Origin: KPDX Portland Intl
United States
Destination: KSFO San Francisco Intl
United States
More flights between these airports :: More routes between these airports
Route: +MINNE5 EASON Q1 ENVIE MLBEC BDEGA3
File this flight plan on PilotEdge
Remarks: PBN / A1B1C1D1S1S2 DOF / 180923 REG / N13227 EET / KZOA0044 OPR / UAL PER / C RMK / TCAS SIMBRIEF
Altitude:
(Current/Filed)
29,000ft
Speed:
(Current/Filed)
448kts
Departed: 22-Sep-18 06:32 PM
Arrived: 22-Sep-18 08:07 PM
Distance/Time
Traveled:
478nm/1:35
Distance/Time
To Go:
Arrived

Flight Plot

Page will automatically refresh every two minutes.

Flight plan parsing failed; only flown route is shown


Map Options




Map Legend


Flown Route
Filed Route
Departure Airport
Arrival Airport
Navaid (VOR, NDB)
Fix

Horizontal Profiles

Position Reports

Time Latitude Longitude Heading Altitude Ground
Speed
22-Sep-18 17:54 45.590063 -122.591031 209 23ft 0kts
22-Sep-18 17:55 45.590063 -122.591031 209 23ft 0kts
22-Sep-18 17:56 45.590063 -122.591031 209 23ft 0kts
22-Sep-18 17:57 45.590063 -122.591031 209 23ft 0kts
22-Sep-18 17:58 45.590063 -122.591031 209 23ft 0kts
22-Sep-18 17:59 45.590063 -122.591031 209 23ft 0kts
22-Sep-18 18:00 45.590063 -122.591031 209 23ft 0kts
22-Sep-18 18:01 45.590063 -122.591031 209 23ft 0kts
22-Sep-18 18:02 45.590063 -122.591031 209 23ft 0kts
22-Sep-18 18:03 45.590063 -122.591031 209 23ft 0kts
22-Sep-18 18:04 45.590063 -122.591031 209 23ft 0kts
22-Sep-18 18:05 45.590063 -122.591031 209 23ft 0kts
22-Sep-18 18:06 45.590063 -122.591031 209 23ft 0kts
22-Sep-18 18:07 45.590063 -122.591031 209 23ft 0kts
22-Sep-18 18:08 45.590063 -122.591031 209 23ft 0kts
22-Sep-18 18:09 45.590063 -122.591031 209 23ft 0kts
22-Sep-18 18:10 45.590063 -122.591031 209 23ft 0kts
22-Sep-18 18:11 45.590063 -122.591031 209 23ft 0kts
22-Sep-18 18:12 45.590063 -122.591031 209 23ft 0kts
22-Sep-18 18:13 45.590063 -122.591031 209 23ft 0kts
22-Sep-18 18:14 45.590063 -122.591031 209 23ft 0kts
22-Sep-18 18:15 45.590063 -122.591031 209 23ft 0kts
22-Sep-18 18:16 45.590063 -122.591031 209 23ft 0kts
22-Sep-18 18:17 45.590063 -122.591031 209 23ft 0kts
22-Sep-18 18:18 45.590063 -122.591031 209 23ft 0kts
22-Sep-18 18:19 45.590063 -122.591031 209 23ft 0kts
22-Sep-18 18:20 45.590063 -122.591031 209 23ft 0kts
22-Sep-18 18:21 45.590063 -122.591031 209 23ft 0kts
22-Sep-18 18:22 45.590063 -122.591031 209 23ft 0kts
22-Sep-18 18:23 45.590320 -122.590845 209 23ft 0kts
22-Sep-18 18:24 45.590854 -122.590921 136 23ft 2kts
22-Sep-18 18:25 45.590967 -122.591140 118 23ft 0kts
22-Sep-18 18:26 45.590967 -122.591140 118 23ft 0kts
22-Sep-18 18:27 45.590961 -122.591125 118 23ft 0kts
22-Sep-18 18:28 45.589869 -122.588476 121 23ft 11kts
22-Sep-18 18:29 45.589152 -122.584349 118 23ft 13kts
22-Sep-18 18:30 45.586528 -122.577572 119 23ft 22kts
22-Sep-18 18:31 45.583558 -122.569894 118 23ft 22kts
22-Sep-18 18:32 45.582798 -122.567963 118 23ft 0kts
22-Sep-18 18:33 45.583670 -122.567100 306 23ft 9kts
22-Sep-18 18:34 45.596876 -122.601281 299 747ft 161kts
22-Sep-18 18:35 45.615427 -122.663825 285 2737ft 208kts
22-Sep-18 18:36 45.646447 -122.744827 299 5006ft 254kts
22-Sep-18 18:37 45.668671 -122.839471 260 7799ft 268kts
22-Sep-18 18:38 45.627342 -122.919270 204 10418ft 280kts
22-Sep-18 18:39 45.548753 -122.930884 186 12422ft 315kts
22-Sep-18 18:40 45.463601 -122.940598 188 14969ft 326kts
22-Sep-18 18:41 45.380219 -122.950283 189 17438ft 321kts
22-Sep-18 18:42 45.289553 -122.960934 190 19473ft 340kts
22-Sep-18 18:43 45.202064 -122.978030 204 21652ft 335kts
22-Sep-18 18:44 45.118230 -123.020868 205 23701ft 338kts
22-Sep-18 18:45 45.032211 -123.064245 206 25570ft 342kts
22-Sep-18 18:46 44.942794 -123.109134 206 27309ft 346kts
22-Sep-18 18:47 44.853778 -123.153663 206 28733ft 350kts
22-Sep-18 18:48 44.764935 -123.197988 206 29142ft 353kts
22-Sep-18 18:49 44.676118 -123.242242 206 29152ft 379kts
22-Sep-18 18:50 44.581623 -123.288957 205 29145ft 393kts
22-Sep-18 18:51 44.479581 -123.327288 189 29163ft 413kts
22-Sep-18 18:52 44.371914 -123.324063 187 29136ft 416kts
22-Sep-18 18:53 44.264028 -123.319748 187 29134ft 416kts
22-Sep-18 18:54 44.155180 -123.315497 187 29122ft 414kts
22-Sep-18 18:55 44.045009 -123.311174 187 29120ft 414kts
22-Sep-18 18:56 43.935260 -123.306860 187 29127ft 414kts
22-Sep-18 18:57 43.830343 -123.302744 187 29146ft 415kts
22-Sep-18 18:58 43.732096 -123.298868 187 29134ft 416kts
22-Sep-18 18:59 43.644332 -123.295508 186 29134ft 419kts
22-Sep-18 19:00 43.550163 -123.291857 187 29118ft 419kts
22-Sep-18 19:01 43.440328 -123.287544 187 29111ft 418kts
22-Sep-18 19:02 43.331185 -123.283265 187 29126ft 418kts
22-Sep-18 19:03 43.220318 -123.278984 187 29127ft 421kts
22-Sep-18 19:04 43.106116 -123.274487 187 29127ft 422kts
22-Sep-18 19:05 42.993054 -123.270107 187 29119ft 421kts
22-Sep-18 19:06 42.883739 -123.265918 187 29148ft 422kts
22-Sep-18 19:07 42.774406 -123.261697 187 29146ft 422kts
22-Sep-18 19:08 42.665272 -123.257533 186 29148ft 425kts
22-Sep-18 19:09 42.564378 -123.253583 186 29144ft 426kts
22-Sep-18 19:10 42.465971 -123.249729 186 29114ft 426kts
22-Sep-18 19:11 42.359516 -123.245790 186 29116ft 427kts
22-Sep-18 19:12 42.251678 -123.241849 186 29105ft 427kts
22-Sep-18 19:13 42.144508 -123.238003 185 29076ft 432kts
22-Sep-18 19:14 42.028986 -123.233760 185 29076ft 433kts
22-Sep-18 19:15 41.921031 -123.229825 186 29074ft 433kts
22-Sep-18 19:16 41.813001 -123.225823 185 29052ft 433kts
22-Sep-18 19:17 41.697599 -123.221572 186 29046ft 430kts
22-Sep-18 19:18 41.591833 -123.217737 186 29056ft 431kts
22-Sep-18 19:19 41.480437 -123.213912 185 29049ft 431kts
22-Sep-18 19:20 41.368020 -123.210034 185 29048ft 431kts
22-Sep-18 19:21 41.250998 -123.200211 182 29053ft 434kts
22-Sep-18 19:22 41.137427 -123.188208 182 29051ft 435kts
22-Sep-18 19:23 41.029682 -123.176959 182 29093ft 435kts
22-Sep-18 19:24 40.919604 -123.165458 182 29092ft 435kts
22-Sep-18 19:25 40.817563 -123.154850 182 29104ft 435kts
22-Sep-18 19:26 40.723533 -123.145166 182 29009ft 438kts
22-Sep-18 19:27 40.618628 -123.134282 182 28909ft 439kts
22-Sep-18 19:28 40.506265 -123.122752 182 28898ft 439kts
22-Sep-18 19:29 40.394936 -123.111379 181 28907ft 438kts
22-Sep-18 19:30 40.284444 -123.100038 182 28904ft 438kts
22-Sep-18 19:31 40.171021 -123.088539 181 28913ft 440kts
22-Sep-18 19:32 40.053518 -123.076564 181 28915ft 440kts
22-Sep-18 19:33 39.941829 -123.065303 181 28907ft 440kts
22-Sep-18 19:34 39.832641 -123.054199 181 28920ft 440kts
22-Sep-18 19:35 39.716365 -123.042510 181 28955ft 438kts
22-Sep-18 19:36 39.602732 -123.031172 181 28994ft 440kts
22-Sep-18 19:37 39.494788 -123.020346 181 29000ft 440kts
22-Sep-18 19:38 39.386521 -123.009541 181 28998ft 440kts
22-Sep-18 19:39 39.276600 -122.998678 182 29004ft 440kts
22-Sep-18 19:40 39.162218 -122.987302 181 28984ft 439kts
22-Sep-18 19:41 39.048181 -122.976112 182 28999ft 437kts
22-Sep-18 19:42 38.934482 -122.964699 181 28997ft 439kts
22-Sep-18 19:43 38.824967 -122.945184 173 28979ft 443kts
22-Sep-18 19:44 38.722433 -122.913973 173 28962ft 424kts
22-Sep-18 19:45 38.615573 -122.882406 173 28954ft 424kts
22-Sep-18 19:46 38.509921 -122.851073 174 27932ft 384kts
22-Sep-18 19:47 38.408236 -122.821306 173 26322ft 406kts
22-Sep-18 19:48 38.306204 -122.791391 172 23912ft 392kts
22-Sep-18 19:49 38.206174 -122.762086 171 21739ft 375kts
22-Sep-18 19:50 38.107797 -122.733445 171 19539ft 363kts
22-Sep-18 19:51 38.012139 -122.705699 170 17465ft 351kts
22-Sep-18 19:52 37.919459 -122.678694 166 15482ft 341kts
22-Sep-18 19:53 37.845096 -122.616209 141 13593ft 341kts
22-Sep-18 19:54 37.775451 -122.542053 141 12069ft 323kts
22-Sep-18 19:55 37.709022 -122.471625 141 10998ft 302kts
22-Sep-18 19:56 37.646246 -122.404868 141 10999ft 297kts
22-Sep-18 19:57 37.580117 -122.345687 154 10651ft 292kts
22-Sep-18 19:58 37.509711 -122.300931 154 9278ft 289kts
22-Sep-18 19:59 37.442857 -122.257222 142 8024ft 286kts
22-Sep-18 20:00 37.416173 -122.169964 103 6766ft 286kts
22-Sep-18 20:01 37.406544 -122.077845 68 5757ft 277kts
22-Sep-18 20:02 37.467523 -122.052706 323 4478ft 271kts
22-Sep-18 20:03 37.512921 -122.124285 298 3271ft 257kts
22-Sep-18 20:04 37.543605 -122.196835 298 2895ft 218kts
22-Sep-18 20:05 37.569392 -122.257813 298 1814ft 182kts
22-Sep-18 20:06 37.589701 -122.305998 298 963ft 138kts
22-Sep-18 20:07 37.606884 -122.347085 297 258ft 133kts
22-Sep-18 20:08 37.619616 -122.377231 298 20ft 50kts
22-Sep-18 20:09 37.619572 -122.381858 298 20ft 13kts
22-Sep-18 20:10 37.621816 -122.387173 297 20ft 17kts
22-Sep-18 20:11 37.621561 -122.391461 205 20ft 12kts
22-Sep-18 20:12 37.620192 -122.390133 31 20ft 7kts
22-Sep-18 20:13 37.620493 -122.389922 27 20ft 0kts
22-Sep-18 20:14 37.620493 -122.389922 27 20ft 0kts

Navigation Log

Ident Type
Flight plan parsing failed, navigation log unavailable